Time;durP1;ratioP1;P1;durP2;ratioP2;P2;SDS_P1;SDS_P2;PMS_P1;PMS_P2;Temp;Humidity;BMP_temperature;BMP_pressure;BME280_temperature;BME280_humidity;BME280_pressure;Samples;Min_cycle;Max_cycle;Signal;HPM_P1;HPM_P2
2022/09/30 00:01:50;;;;;;;1.92;1.20;;;20.70;44.40;;;;;;5028758;28;20335;-49
2022/09/30 00:04:21;;;;;;;1.65;1.30;;;20.70;44.40;;;;;;5043913;28;20415;-51
2022/09/30 00:06:48;;;;;;;2.15;1.60;;;20.70;44.90;;;;;;5047800;28;20041;-53
2022/09/30 00:09:14;;;;;;;1.88;1.05;;;20.70;44.30;;;;;;5018320;28;20314;-48
2022/09/30 00:11:41;;;;;;;1.65;1.30;;;20.70;44.30;;;;;;5020796;28;20030;-51
2022/09/30 00:14:14;;;;;;;1.83;1.30;;;20.70;44.30;;;;;;5057814;28;20040;-51
2022/09/30 00:16:40;;;;;;;1.65;1.27;;;20.70;44.30;;;;;;5051038;28;20064;-49
2022/09/30 00:19:06;;;;;;;1.52;1.13;;;20.70;44.20;;;;;;5028215;28;20025;-51
2022/09/30 00:21:32;;;;;;;1.50;1.40;;;20.70;44.20;;;;;;5054234;28;20121;-49
2022/09/30 00:23:59;;;;;;;2.35;1.40;;;20.70;44.10;;;;;;5018080;28;20365;-54
2022/09/30 00:26:25;;;;;;;2.05;1.20;;;20.70;44.10;;;;;;5044090;28;20033;-53
2022/09/30 00:28:54;;;;;;;2.50;1.20;;;20.70;44.10;;;;;;5049509;28;20102;-52
2022/09/30 00:31:22;;;;;;;1.88;1.30;;;20.70;44.10;;;;;;5043284;28;20032;-51
2022/09/30 00:34:05;;;;;;;1.27;1.00;;;20.70;44.10;;;;;;5051517;28;20029;-53
2022/09/30 00:36:42;;;;;;;2.30;1.50;;;20.70;44.20;;;;;;5052762;28;20160;-54
2022/09/30 00:39:11;;;;;;;2.28;1.42;;;20.70;44.10;;;;;;5029872;28;20451;-53
2022/09/30 00:41:37;;;;;;;1.77;1.30;;;20.70;44.10;;;;;;5053357;28;20032;-51
2022/09/30 00:44:43;;;;;;;1.65;1.30;;;20.70;44.10;;;;;;5022791;28;20061;-53
2022/09/30 00:47:25;;;;;;;2.63;1.38;;;20.70;44.10;;;;;;5040761;28;20415;-51
2022/09/30 00:49:51;;;;;;;1.40;1.08;;;20.70;44.00;;;;;;5038539;28;20337;-52
2022/09/30 00:52:18;;;;;;;1.85;1.25;;;20.60;44.00;;;;;;5052153;28;20178;-54
2022/09/30 00:54:44;;;;;;;2.38;1.60;;;20.70;44.10;;;;;;5017300;28;20030;-51
2022/09/30 00:57:10;;;;;;;1.95;1.25;;;20.60;44.10;;;;;;5022640;28;20045;-53
2022/09/30 00:59:41;;;;;;;2.17;1.67;;;20.70;44.20;;;;;;5025403;28;20049;-49
2022/09/30 01:02:09;;;;;;;1.63;1.23;;;20.70;44.10;;;;;;5029080;28;20131;-53
2022/09/30 01:04:36;;;;;;;2.63;1.50;;;20.70;44.10;;;;;;5022122;28;20034;-51
2022/09/30 01:07:07;;;;;;;2.17;1.45;;;20.70;44.00;;;;;;5032233;28;20036;-51
2022/09/30 01:09:35;;;;;;;2.42;1.75;;;20.70;44.00;;;;;;5029614;28;20073;-48
2022/09/30 01:12:14;;;;;;;1.88;1.42;;;20.70;44.00;;;;;;5040041;28;20069;-50
2022/09/30 01:14:41;;;;;;;1.83;1.40;;;20.60;43.90;;;;;;5020810;28;20034;-52
2022/09/30 01:17:17;;;;;;;1.65;1.50;;;20.60;43.80;;;;;;5022104;28;20022;-50
2022/09/30 01:20:20;;;;;;;1.65;1.13;;;20.60;43.80;;;;;;5027198;28;20456;-51
2022/09/30 01:23:08;;;;;;;1.85;1.40;;;20.60;43.80;;;;;;5039146;28;20033;-50
2022/09/30 01:25:59;;;;;;;1.80;1.40;;;20.70;43.80;;;;;;5020597;28;20125;-51
2022/09/30 01:28:37;;;;;;;2.38;1.40;;;20.60;43.80;;;;;;5026397;28;20047;-51
2022/09/30 01:31:12;;;;;;;1.83;1.50;;;20.60;43.80;;;;;;5045860;28;20028;-49
2022/09/30 01:33:54;;;;;;;1.52;1.30;;;20.60;43.80;;;;;;5036130;28;20029;-51
2022/09/30 01:36:53;;;;;;;2.40;1.42;;;20.60;44.40;;;;;;5022299;28;20120;-53
2022/09/30 01:39:56;;;;;;;1.80;1.35;;;20.60;43.80;;;;;;5042613;28;20044;-48
2022/09/30 01:42:25;;;;;;;2.03;1.63;;;20.60;43.70;;;;;;5033605;28;20022;-49
2022/09/30 01:45:08;;;;;;;1.50;1.27;;;20.60;43.70;;;;;;5041415;28;20045;-52
2022/09/30 01:48:18;;;;;;;1.55;1.40;;;20.60;43.70;;;;;;5032297;28;20133;-54
2022/09/30 01:50:57;;;;;;;2.10;1.20;;;20.60;43.70;;;;;;5016143;28;20033;-53
2022/09/30 01:53:34;;;;;;;7.13;1.45;;;20.60;43.70;;;;;;5034320;28;20040;-50
2022/09/30 01:56:20;;;;;;;1.55;1.20;;;20.60;43.70;;;;;;5038204;28;20028;-53
2022/09/30 01:59:10;;;;;;;1.20;1.10;;;20.60;43.70;;;;;;5040277;28;20103;-51
2022/09/30 02:01:48;;;;;;;1.27;1.00;;;20.60;43.70;;;;;;5015730;28;20456;-51
2022/09/30 02:04:19;;;;;;;2.28;1.58;;;20.50;43.70;;;;;;5030622;28;20523;-49
2022/09/30 02:06:51;;;;;;;1.70;1.23;;;20.60;43.70;;;;;;5046913;28;20048;-52
2022/09/30 02:09:35;;;;;;;1.38;1.00;;;20.50;43.60;;;;;;5018237;28;20037;-51
2022/09/30 02:12:06;;;;;;;2.35;1.15;;;20.50;43.60;;;;;;5015174;28;20034;-49
2022/09/30 02:14:40;;;;;;;1.52;1.20;;;20.50;43.60;;;;;;5030896;28;20055;-51
2022/09/30 02:17:22;;;;;;;1.73;1.23;;;20.60;43.60;;;;;;5015909;28;20041;-53
2022/09/30 02:19:58;;;;;;;2.90;1.10;;;20.50;43.50;;;;;;5035995;28;20098;-52
2022/09/30 02:22:28;;;;;;;2.00;1.10;;;20.50;43.50;;;;;;5035057;28;20029;-50
2022/09/30 02:25:00;;;;;;;1.75;1.33;;;20.50;43.60;;;;;;5037833;28;20064;-49
2022/09/30 02:27:39;;;;;;;2.03;1.10;;;20.60;43.60;;;;;;5015137;28;20438;-52
2022/09/30 02:30:08;;;;;;;2.40;1.35;;;20.50;43.60;;;;;;5040992;28;20033;-54
2022/09/30 02:32:58;;;;;;;1.80;1.20;;;20.50;43.60;;;;;;5034182;28;20051;-49
2022/09/30 02:35:30;;;;;;;1.30;1.17;;;20.50;43.60;;;;;;5024062;28;20121;-52
2022/09/30 02:38:02;;;;;;;1.88;1.00;;;20.50;43.60;;;;;;5027828;28;20029;-54
2022/09/30 02:40:49;;;;;;;2.17;1.33;;;20.50;43.60;;;;;;5029551;28;20025;-54
2022/09/30 02:43:19;;;;;;;1.60;1.23;;;20.50;43.60;;;;;;5015097;28;20432;-54
2022/09/30 02:45:54;;;;;;;1.10;1.00;;;20.50;43.50;;;;;;5026794;28;20050;-51
2022/09/30 02:48:36;;;;;;;1.88;1.25;;;20.50;43.50;;;;;;5015939;28;20037;-51
2022/09/30 02:51:14;;;;;;;1.98;1.35;;;20.50;43.50;;;;;;5037998;28;20064;-49
2022/09/30 02:54:02;;;;;;;1.35;1.23;;;20.50;43.50;;;;;;5025497;28;20062;-52
2022/09/30 02:56:48;;;;;;;1.52;1.23;;;20.50;43.50;;;;;;5040972;28;20112;-49
2022/09/30 02:59:14;;;;;;;1.65;1.00;;;20.50;43.50;;;;;;5029348;28;20398;-49
2022/09/30 03:01:40;;;;;;;1.80;1.00;;;20.50;43.60;;;;;;5030117;28;20124;-49
2022/09/30 03:04:13;;;;;;;2.65;1.33;;;20.50;43.50;;;;;;5020622;28;20041;-50
2022/09/30 03:06:39;;;;;;;1.70;1.08;;;20.50;43.50;;;;;;5055427;28;20071;-50
2022/09/30 03:09:06;;;;;;;1.40;1.00;;;20.50;43.50;;;;;;5036974;28;20022;-49
2022/09/30 03:11:33;;;;;;;1.35;1.05;;;20.50;43.50;;;;;;5039558;28;20080;-51
2022/09/30 03:14:28;;;;;;;2.13;1.35;;;20.50;43.40;;;;;;5036418;28;20024;-50
2022/09/30 03:17:23;;;;;;;1.30;0.93;;;20.50;43.40;;;;;;5042238;28;20108;-48
2022/09/30 03:20:25;;;;;;;1.45;1.20;;;20.50;43.40;;;;;;5035584;28;20026;-51
2022/09/30 03:22:57;;;;;;;2.08;1.20;;;20.40;43.40;;;;;;5018604;28;20048;-48
2022/09/30 03:25:48;;;;;;;1.65;1.02;;;20.50;43.50;;;;;;5024205;28;20068;-50
2022/09/30 03:28:28;;;;;;;2.05;1.35;;;20.40;43.50;;;;;;5020074;28;20468;-51
2022/09/30 03:31:13;;;;;;;2.22;1.40;;;20.40;43.40;;;;;;5032235;28;20452;-53
2022/09/30 03:33:59;;;;;;;1.30;1.10;;;20.50;43.40;;;;;;5038525;28;20115;-53
2022/09/30 03:36:40;;;;;;;1.20;1.08;;;20.40;43.40;;;;;;5045744;28;20071;-54
2022/09/30 03:39:59;;;;;;;2.22;1.27;;;20.40;43.40;;;;;;5039798;28;20048;-53
2022/09/30 03:42:32;;;;;;;2.15;1.00;;;20.40;43.30;;;;;;4998878;28;20062;-53
2022/09/30 03:45:14;;;;;;;1.23;1.05;;;20.40;43.40;;;;;;5003800;28;20048;-52
2022/09/30 03:47:45;;;;;;;1.65;1.13;;;20.40;43.40;;;;;;5027655;28;20049;-53
2022/09/30 03:50:15;;;;;;;1.52;1.05;;;20.40;43.40;;;;;;5024519;28;20367;-51
2022/09/30 03:52:41;;;;;;;1.77;1.10;;;20.40;43.40;;;;;;5021790;28;20037;-50
2022/09/30 03:55:10;;;;;;;1.70;1.05;;;20.40;43.30;;;;;;5017906;28;20041;-53
2022/09/30 03:57:36;;;;;;;1.60;1.20;;;20.40;43.30;;;;;;5033945;28;20025;-52
2022/09/30 04:00:04;;;;;;;1.58;1.10;;;20.40;43.30;;;;;;5048277;28;20026;-53
2022/09/30 04:02:30;;;;;;;1.77;1.25;;;20.40;43.20;;;;;;5035431;28;20360;-52
2022/09/30 04:04:57;;;;;;;1.17;1.02;;;20.40;43.30;;;;;;5035340;28;20069;-51
2022/09/30 04:07:23;;;;;;;1.60;1.17;;;20.40;43.20;;;;;;5037767;28;20031;-49
2022/09/30 04:09:49;;;;;;;1.67;1.15;;;20.40;43.20;;;;;;5025178;28;20369;-50
2022/09/30 04:12:15;;;;;;;2.38;1.23;;;20.40;43.20;;;;;;5022039;28;20041;-51
2022/09/30 04:14:41;;;;;;;1.48;1.10;;;20.40;43.20;;;;;;5017311;28;20164;-50
2022/09/30 04:17:07;;;;;;;1.50;1.00;;;20.40;43.10;;;;;;5020766;28;20029;-49
2022/09/30 04:19:37;;;;;;;2.95;1.15;;;20.40;43.10;;;;;;5017558;28;20065;-51
2022/09/30 04:22:03;;;;;;;1.60;1.27;;;20.40;43.10;;;;;;5024535;28;20033;-52
2022/09/30 04:24:28;;;;;;;1.63;1.20;;;20.40;43.00;;;;;;5053714;28;20415;-50
2022/09/30 04:26:54;;;;;;;2.78;1.10;;;20.40;43.00;;;;;;5028351;28;20040;-50
2022/09/30 04:29:20;;;;;;;2.28;1.70;;;20.40;43.00;;;;;;5044064;28;20029;-51
2022/09/30 04:31:46;;;;;;;1.35;1.00;;;20.40;43.00;;;;;;5048321;28;20472;-47
2022/09/30 04:34:12;;;;;;;2.53;1.30;;;20.40;43.00;;;;;;5038556;28;20155;-51
2022/09/30 04:36:37;;;;;;;4.15;1.58;;;20.30;43.00;;;;;;5038168;28;20095;-48
2022/09/30 04:39:04;;;;;;;1.50;1.17;;;20.30;43.00;;;;;;5026765;28;20032;-53
2022/09/30 04:41:31;;;;;;;2.92;1.35;;;20.30;43.00;;;;;;5032123;28;20041;-49
2022/09/30 04:43:57;;;;;;;1.73;1.17;;;20.40;43.10;;;;;;5016962;28;20049;-52
2022/09/30 04:46:23;;;;;;;1.92;1.25;;;20.30;43.00;;;;;;5023909;28;20364;-53
2022/09/30 04:48:49;;;;;;;1.75;0.98;;;20.30;43.00;;;;;;5035164;28;20445;-47
2022/09/30 04:51:18;;;;;;;1.85;1.25;;;20.30;43.00;;;;;;5041268;28;20033;-53
2022/09/30 04:53:45;;;;;;;1.92;1.45;;;20.30;43.60;;;;;;5033126;28;20349;-52
2022/09/30 04:56:11;;;;;;;2.20;1.42;;;20.30;43.00;;;;;;5035604;28;20048;-54
2022/09/30 04:58:37;;;;;;;1.98;1.27;;;20.30;43.00;;;;;;5030362;28;20350;-52
2022/09/30 05:01:11;;;;;;;1.40;1.23;;;20.30;42.90;;;;;;5033521;28;20033;-54
2022/09/30 05:03:38;;;;;;;1.90;1.40;;;20.30;42.90;;;;;;5021206;28;20040;-54
2022/09/30 05:06:05;;;;;;;1.75;1.38;;;20.30;42.90;;;;;;5050365;28;20464;-50
2022/09/30 05:08:34;;;;;;;2.03;1.33;;;20.30;42.90;;;;;;5028690;28;20026;-51
2022/09/30 05:11:03;;;;;;;1.80;1.20;;;20.30;42.90;;;;;;5016451;28;20145;-50
2022/09/30 05:13:34;;;;;;;3.33;1.95;;;20.30;42.90;;;;;;5016938;28;20026;-53
2022/09/30 05:16:01;;;;;;;1.85;1.30;;;20.30;42.90;;;;;;5020379;28;20034;-54
2022/09/30 05:18:27;;;;;;;1.80;1.30;;;20.30;42.90;;;;;;5024567;28;20129;-53
2022/09/30 05:20:56;;;;;;;2.40;1.40;;;20.30;42.90;;;;;;5045913;28;20057;-52
2022/09/30 05:23:23;;;;;;;2.30;1.42;;;20.30;42.90;;;;;;5044072;28;20345;-50
2022/09/30 05:25:50;;;;;;;2.03;1.55;;;20.30;42.90;;;;;;5025959;28;20045;-50
2022/09/30 05:28:16;;;;;;;2.38;1.50;;;20.30;42.80;;;;;;5016832;28;20041;-51
2022/09/30 05:30:43;;;;;;;1.88;1.30;;;20.30;42.80;;;;;;5029584;28;20080;-52
2022/09/30 05:33:10;;;;;;;1.95;1.50;;;20.30;42.80;;;;;;5028127;28;20457;-49
2022/09/30 05:35:38;;;;;;;2.15;1.55;;;20.30;42.80;;;;;;5033879;28;20025;-50
2022/09/30 05:38:04;;;;;;;2.05;1.55;;;20.30;42.80;;;;;;5034923;28;20036;-49
2022/09/30 05:40:30;;;;;;;1.75;1.23;;;20.30;42.80;;;;;;5044866;28;20052;-53
2022/09/30 05:42:58;;;;;;;1.67;1.42;;;20.30;42.80;;;;;;5018277;28;20103;-55
2022/09/30 05:45:25;;;;;;;2.22;1.42;;;20.20;42.70;;;;;;5015846;28;20468;-54
2022/09/30 05:47:54;;;;;;;2.47;1.30;;;20.30;42.70;;;;;;5016296;28;20056;-52
2022/09/30 05:50:21;;;;;;;2.00;1.50;;;20.30;42.70;;;;;;5034657;28;20033;-49
2022/09/30 05:52:48;;;;;;;3.05;1.73;;;20.30;42.60;;;;;;5041718;28;20033;-51
2022/09/30 05:55:15;;;;;;;2.30;1.88;;;20.30;42.60;;;;;;5016242;28;20099;-52
2022/09/30 05:57:42;;;;;;;3.22;1.98;;;20.20;42.60;;;;;;5024335;28;20045;-49
2022/09/30 06:00:08;;;;;;;2.88;1.77;;;20.20;42.60;;;;;;5020006;28;20817;-54
2022/09/30 06:02:37;;;;;;;2.38;1.38;;;20.20;42.70;;;;;;5055526;28;20044;-50
2022/09/30 06:05:07;;;;;;;2.30;1.65;;;20.20;42.70;;;;;;5022062;28;20030;-54
2022/09/30 06:07:34;;;;;;;2.65;1.52;;;20.30;42.80;;;;;;5019872;28;20071;-50
2022/09/30 06:10:01;;;;;;;2.30;1.85;;;20.20;42.80;;;;;;5014676;28;20053;-52
2022/09/30 06:12:27;;;;;;;3.15;1.90;;;20.30;42.90;;;;;;5025101;28;20040;-49
2022/09/30 06:14:54;;;;;;;2.10;1.60;;;20.20;42.80;;;;;;5038971;28;20029;-49
2022/09/30 06:17:21;;;;;;;8.13;1.90;;;20.20;42.80;;;;;;5021967;28;20025;-51
2022/09/30 06:19:51;;;;;;;4.50;1.75;;;20.20;42.80;;;;;;5018169;28;20030;-53
2022/09/30 06:22:17;;;;;;;1.83;1.40;;;20.20;42.80;;;;;;5017262;28;20172;-50
2022/09/30 06:24:46;;;;;;;2.10;1.70;;;20.20;42.90;;;;;;5016265;28;20076;-51
2022/09/30 06:27:23;;;;;;;2.63;1.48;;;20.20;42.80;;;;;;5015606;28;20030;-48
2022/09/30 06:29:49;;;;;;;2.65;1.85;;;20.20;43.50;;;;;;5023024;28;20034;-51
2022/09/30 06:32:16;;;;;;;2.95;1.90;;;20.20;42.90;;;;;;5016490;28;20377;-53
2022/09/30 06:34:42;;;;;;;3.17;1.95;;;20.20;42.90;;;;;;5019242;28;20095;-53
2022/09/30 06:37:10;;;;;;;1.92;1.52;;;20.20;43.60;;;;;;5024620;28;20457;-53
2022/09/30 06:39:36;;;;;;;2.88;1.70;;;20.20;43.00;;;;;;5015078;28;20029;-54
2022/09/30 06:42:02;;;;;;;1.80;1.50;;;20.20;43.00;;;;;;5014780;28;20030;-54
2022/09/30 06:44:28;;;;;;;3.05;1.63;;;20.20;43.00;;;;;;5027594;28;20151;-53
2022/09/30 06:46:54;;;;;;;3.10;1.75;;;20.20;43.10;;;;;;5017107;28;20076;-55
2022/09/30 06:49:20;;;;;;;2.08;1.40;;;20.20;43.10;;;;;;5013988;28;20465;-54
2022/09/30 06:51:46;;;;;;;2.08;1.52;;;20.20;43.20;;;;;;5013634;28;20163;-54
2022/09/30 06:54:12;;;;;;;3.95;2.00;;;20.20;43.30;;;;;;5012837;28;20222;-55
2022/09/30 06:56:38;;;;;;;3.47;1.65;;;20.20;43.40;;;;;;5013184;28;20022;-53
2022/09/30 06:59:04;;;;;;;4.03;1.95;;;20.20;43.40;;;;;;5043777;28;20109;-53
2022/09/30 07:01:30;;;;;;;3.00;1.70;;;20.20;43.50;;;;;;5026872;28;20033;-53
2022/09/30 07:04:02;;;;;;;3.65;1.55;;;20.30;43.60;;;;;;5024427;28;20026;-55
2022/09/30 07:06:28;;;;;;;2.67;1.80;;;20.30;43.70;;;;;;5014948;28;20037;-54
2022/09/30 07:08:55;;;;;;;2.13;1.85;;;20.20;43.70;;;;;;5011370;28;20053;-51
2022/09/30 07:11:21;;;;;;;2.33;1.70;;;20.20;43.80;;;;;;5015110;28;20125;-54
2022/09/30 07:13:48;;;;;;;2.00;1.80;;;20.30;44.00;;;;;;5013270;28;20049;-54
2022/09/30 07:16:16;;;;;;;2.28;1.83;;;20.30;44.10;;;;;;5019296;28;20037;-52
2022/09/30 07:18:43;;;;;;;3.17;2.13;;;20.30;44.20;;;;;;5021808;28;20029;-54
2022/09/30 07:21:12;;;;;;;2.97;2.00;;;20.30;44.30;;;;;;5019756;28;20044;-50
2022/09/30 07:23:44;;;;;;;4.50;2.35;;;20.30;44.30;;;;;;5033112;28;20033;-48
2022/09/30 07:26:10;;;;;;;2.45;2.05;;;20.30;44.20;;;;;;5016748;28;20042;-58
2022/09/30 07:28:38;;;;;;;1.90;1.70;;;20.30;44.10;;;;;;5029683;28;20461;-56
2022/09/30 07:31:16;;;;;;;3.30;1.90;;;20.30;44.30;;;;;;5026163;28;20029;-52
2022/09/30 07:33:42;;;;;;;3.97;2.35;;;20.30;44.30;;;;;;5024326;28;20571;-52
2022/09/30 07:36:11;;;;;;;4.97;2.67;;;20.30;44.30;;;;;;5034633;28;20025;-55
2022/09/30 07:38:39;;;;;;;3.72;2.50;;;20.30;44.10;;;;;;5043291;28;20029;-54
2022/09/30 07:41:13;;;;;;;3.38;2.28;;;20.40;44.00;;;;;;5027620;28;20044;-51
2022/09/30 07:43:41;;;;;;;2.65;2.00;;;20.50;43.90;;;;;;5040054;28;20102;-55
2022/09/30 07:46:11;;;;;;;2.92;2.60;;;20.60;43.70;;;;;;5034349;28;20489;-51
2022/09/30 07:48:43;;;;;;;3.50;2.30;;;20.70;43.60;;;;;;5040270;28;20038;-50
2022/09/30 07:51:37;;;;;;;3.03;2.33;;;20.80;43.40;;;;;;5036012;28;20037;-50
2022/09/30 07:54:13;;;;;;;3.22;2.50;;;20.90;43.30;;;;;;5044135;28;20048;-53
2022/09/30 07:56:40;;;;;;;2.55;2.33;;;21.00;43.20;;;;;;5041351;28;20360;-53
2022/09/30 07:59:06;;;;;;;2.72;2.42;;;21.00;43.00;;;;;;5053495;28;20025;-50
2022/09/30 08:01:33;;;;;;;3.20;2.22;;;21.00;42.90;;;;;;5031081;28;20037;-57
2022/09/30 08:04:05;;;;;;;3.65;2.22;;;21.10;42.80;;;;;;5030648;28;20349;-50
2022/09/30 08:06:35;;;;;;;3.22;2.40;;;21.20;42.80;;;;;;5017319;28;20045;-52
2022/09/30 08:09:01;;;;;;;4.00;2.10;;;21.20;42.70;;;;;;5027356;28;20334;-52
2022/09/30 08:11:27;;;;;;;5.07;2.25;;;21.20;42.60;;;;;;5020837;28;20052;-50
2022/09/30 08:13:55;;;;;;;3.00;2.30;;;21.30;42.60;;;;;;5025788;28;20160;-52
2022/09/30 08:16:22;;;;;;;3.20;2.20;;;21.30;42.50;;;;;;5035197;28;20124;-50
2022/09/30 08:18:52;;;;;;;2.95;2.10;;;21.30;42.40;;;;;;5023320;28;20033;-55
2022/09/30 08:21:18;;;;;;;3.13;2.20;;;21.40;42.40;;;;;;5027610;28;20045;-52
2022/09/30 08:23:43;;;;;;;2.95;2.30;;;21.40;42.30;;;;;;5031567;28;20030;-50
2022/09/30 08:26:11;;;;;;;3.45;2.10;;;21.40;42.90;;;;;;5023609;28;20179;-51
2022/09/30 08:28:37;;;;;;;2.00;1.75;;;21.50;42.20;;;;;;5025998;28;20030;-50
2022/09/30 08:31:10;;;;;;;2.60;1.70;;;21.50;42.20;;;;;;5021056;28;20115;-53
2022/09/30 08:33:36;;;;;;;3.40;1.92;;;21.60;42.10;;;;;;5034798;28;20055;-49
2022/09/30 08:36:08;;;;;;;2.10;1.55;;;21.60;42.10;;;;;;5026395;28;20432;-50
2022/09/30 08:38:34;;;;;;;2.30;1.88;;;21.60;42.00;;;;;;5048627;28;20035;-51
2022/09/30 08:41:15;;;;;;;2.08;1.75;;;21.60;41.90;;;;;;5032520;28;20410;-53
2022/09/30 08:44:05;;;;;;;2.78;1.90;;;21.70;41.90;;;;;;5052229;28;20033;-50
2022/09/30 08:46:45;;;;;;;2.25;1.70;;;21.70;41.80;;;;;;5034856;28;20080;-53
2022/09/30 08:49:29;;;;;;;3.40;2.13;;;21.70;41.80;;;;;;5016959;28;20049;-52
2022/09/30 08:51:56;;;;;;;2.43;1.93;;;21.80;41.80;;;;;;5017112;28;20037;-51
2022/09/30 08:54:29;;;;;;;2.95;1.88;;;21.80;42.40;;;;;;5033805;28;20037;-54
2022/09/30 08:56:56;;;;;;;3.50;2.30;;;21.80;41.80;;;;;;5044739;28;20049;-53
2022/09/30 08:59:27;;;;;;;2.58;1.60;;;21.80;41.70;;;;;;5018561;28;20030;-53
2022/09/30 09:02:01;;;;;;;2.13;1.60;;;21.80;41.70;;;;;;5028552;28;20029;-56
2022/09/30 09:04:27;;;;;;;1.98;1.60;;;21.80;41.70;;;;;;5041188;28;20030;-54
2022/09/30 09:07:03;;;;;;;4.25;1.65;;;21.90;41.70;;;;;;5035600;28;20040;-57
2022/09/30 09:09:50;;;;;;;2.50;1.70;;;21.90;41.70;;;;;;5016420;28;20044;-50
2022/09/30 09:12:37;;;;;;;2.67;1.90;;;21.90;41.70;;;;;;5016479;28;20032;-55
2022/09/30 09:15:49;;;;;;;3.03;1.52;;;21.90;41.60;;;;;;5023364;28;20465;-54
2022/09/30 09:18:40;;;;;;;2.50;1.80;;;21.90;41.70;;;;;;5005164;28;20113;-53
2022/09/30 09:21:39;;;;;;;2.35;1.42;;;22.00;41.70;;;;;;5006877;28;20438;-53
2022/09/30 09:24:16;;;;;;;2.47;1.50;;;22.00;41.80;;;;;;4990859;28;20046;-53
2022/09/30 09:26:42;;;;;;;2.00;1.27;;;22.00;41.80;;;;;;5019204;28;20061;-53
2022/09/30 09:29:36;;;;;;;2.80;1.55;;;22.00;41.90;;;;;;5014624;28;20041;-51
2022/09/30 09:32:06;;;;;;;2.38;1.30;;;22.00;41.90;;;;;;5015692;28;20026;-51
2022/09/30 09:34:31;;;;;;;3.05;1.40;;;22.00;41.90;;;;;;5016814;28;20070;-55
2022/09/30 09:38:23;;;;;;;3.38;1.70;;;22.10;42.00;;;;;;5023857;28;20030;-51
2022/09/30 09:40:39;;;;;;;3.28;1.30;;;22.10;42.10;;;;;;5010265;28;20112;-49
2022/09/30 09:43:37;;;;;;;2.03;1.50;;;22.10;42.00;;;;;;5009715;28;20422;-55
2022/09/30 09:46:17;;;;;;;2.00;1.30;;;22.20;42.10;;;;;;5014869;28;20046;-52
2022/09/30 09:48:43;;;;;;;2.15;1.42;;;22.20;42.10;;;;;;5014221;28;20078;-52
2022/09/30 09:51:30;;;;;;;1.75;1.23;;;22.20;42.00;;;;;;5015538;28;20116;-51
2022/09/30 09:54:00;;;;;;;1.90;1.20;;;22.20;42.10;;;;;;5015752;28;20017;-53
2022/09/30 09:56:29;;;;;;;2.33;1.60;;;22.30;42.10;;;;;;5034486;28;20033;-53
2022/09/30 09:59:14;;;;;;;4.13;1.30;;;22.30;42.10;;;;;;5029021;28;20028;-51
2022/09/30 10:01:52;;;;;;;1.95;1.20;;;22.30;42.10;;;;;;5025894;28;20112;-54
2022/09/30 10:04:25;;;;;;;4.70;1.30;;;22.40;42.10;;;;;;5028800;28;20029;-52
2022/09/30 10:06:59;;;;;;;2.45;1.58;;;22.40;42.20;;;;;;5025757;28;20049;-55
2022/09/30 10:09:37;;;;;;;5.95;1.30;;;22.40;42.00;;;;;;5025900;28;20133;-50
2022/09/30 10:12:05;;;;;;;2.25;1.20;;;22.40;42.00;;;;;;5025022;28;20029;-51
2022/09/30 10:14:50;;;;;;;4.30;1.30;;;22.40;42.00;;;;;;5019038;28;20022;-54
2022/09/30 10:17:30;;;;;;;2.10;1.10;;;22.50;42.00;;;;;;5029219;28;20117;-54
2022/09/30 10:20:14;;;;;;;2.70;1.10;;;22.50;42.00;;;;;;5020167;28;20036;-57
2022/09/30 10:22:40;;;;;;;4.07;1.20;;;22.60;42.00;;;;;;5015668;28;20026;-57
2022/09/30 10:25:22;;;;;;;2.25;1.23;;;22.50;41.80;;;;;;5024564;28;21669;-55
2022/09/30 10:28:00;;;;;;;1.92;1.20;;;22.60;41.80;;;;;;5021326;28;20407;-55
2022/09/30 10:31:05;;;;;;;2.67;1.20;;;22.60;41.70;;;;;;5027558;28;20053;-56
2022/09/30 10:33:50;;;;;;;3.55;1.50;;;22.60;41.60;;;;;;5027092;28;20364;-58
2022/09/30 10:36:18;;;;;;;4.20;1.50;;;22.50;41.50;;;;;;5038070;28;20457;-55
2022/09/30 10:38:46;;;;;;;2.25;1.25;;;22.60;41.50;;;;;;5020312;28;20034;-55
2022/09/30 10:41:19;;;;;;;2.85;1.10;;;22.60;41.50;;;;;;5020015;28;20033;-53
2022/09/30 10:43:50;;;;;;;2.30;1.35;;;22.60;41.50;;;;;;5029819;28;20029;-56
2022/09/30 10:46:44;;;;;;;3.58;1.02;;;22.60;41.50;;;;;;5024401;28;20120;-56
2022/09/30 10:49:27;;;;;;;2.00;1.27;;;22.60;41.40;;;;;;5021749;28;20053;-57
2022/09/30 10:51:58;;;;;;;2.78;1.60;;;22.60;41.40;;;;;;5026921;28;20349;-55
2022/09/30 10:54:48;;;;;;;3.03;1.02;;;22.60;41.50;;;;;;5028445;28;20034;-55
2022/09/30 10:57:25;;;;;;;4.57;1.15;;;22.60;41.30;;;;;;5015551;28;20034;-50
2022/09/30 11:00:17;;;;;;;2.65;1.35;;;22.60;41.30;;;;;;5014854;28;20109;-54
2022/09/30 11:03:22;;;;;;;1.67;1.25;;;22.60;41.20;;;;;;5014762;28;20447;-56
2022/09/30 11:05:49;;;;;;;2.80;1.08;;;22.60;41.20;;;;;;5021260;28;20054;-55
2022/09/30 11:08:17;;;;;;;1.73;1.10;;;22.60;41.20;;;;;;5014799;28;20037;-56
2022/09/30 11:11:02;;;;;;;2.08;1.15;;;22.60;41.20;;;;;;5015056;28;20053;-54
2022/09/30 11:13:34;;;;;;;2.38;1.08;;;22.60;41.20;;;;;;5014796;28;20033;-52
2022/09/30 11:16:23;;;;;;;3.05;1.02;;;22.60;41.20;;;;;;5015257;28;20029;-53
2022/09/30 11:19:13;;;;;;;2.08;1.00;;;22.60;41.20;;;;;;5015794;28;20034;-56
2022/09/30 11:22:10;;;;;;;2.00;1.00;;;22.60;41.10;;;;;;5018896;28;20188;-54
2022/09/30 11:24:42;;;;;;;1.58;1.05;;;22.60;41.10;;;;;;5019680;28;20030;-53
2022/09/30 11:27:32;;;;;;;2.17;1.08;;;22.60;41.10;;;;;;5022235;28;20140;-53
2022/09/30 11:30:15;;;;;;;1.48;1.10;;;22.60;41.00;;;;;;5048422;28;20025;-51
2022/09/30 11:32:41;;;;;;;1.48;1.17;;;22.60;41.00;;;;;;5018647;28;20030;-55
2022/09/30 11:35:07;;;;;;;2.25;1.00;;;22.60;40.90;;;;;;5018565;28;20084;-54
2022/09/30 11:38:34;;;;;;;0.98;0.90;;;22.60;40.90;;;;;;5036269;28;20029;-51
2022/09/30 11:41:08;;;;;;;1.70;0.90;;;22.60;40.80;;;;;;5036213;28;20107;-55
2022/09/30 11:43:55;;;;;;;1.63;0.87;;;22.60;40.80;;;;;;5037883;28;20045;-52
2022/09/30 11:46:45;;;;;;;1.42;1.00;;;22.60;40.80;;;;;;5018228;28;20403;-53
2022/09/30 11:49:20;;;;;;;1.23;0.90;;;22.60;40.70;;;;;;5018138;28;20025;-53
2022/09/30 11:52:11;;;;;;;1.23;0.90;;;22.60;40.70;;;;;;5031347;28;20025;-55
2022/09/30 11:55:22;;;;;;;5.07;1.02;;;22.60;40.60;;;;;;5033309;28;20041;-56
2022/09/30 11:58:05;;;;;;;2.33;1.10;;;22.60;40.60;;;;;;4993553;28;20053;-59
2022/09/30 12:00:36;;;;;;;3.95;1.80;;;22.70;40.90;;;;;;5025908;28;20496;-53
2022/09/30 12:03:20;;;;;;;7.95;1.85;;;22.70;41.20;;;;;;5035990;28;20104;-57
2022/09/30 12:06:00;;;;;;;4.65;1.92;;;22.80;41.50;;;;;;5027283;28;20658;-58
2022/09/30 12:08:35;;;;;;;5.20;1.80;;;22.80;41.60;;;;;;5049235;28;20033;-58
2022/09/30 12:11:03;;;;;;;1.65;1.30;;;22.90;41.60;;;;;;5034196;28;20072;-55
2022/09/30 12:13:37;;;;;;;1.73;1.40;;;22.90;42.10;;;;;;5036602;28;20025;-58
2022/09/30 12:16:07;;;;;;;4.38;1.27;;;23.00;41.30;;;;;;5032714;28;20094;-58
2022/09/30 12:18:40;;;;;;;2.08;1.23;;;23.00;41.20;;;;;;5031094;28;20049;-59
2022/09/30 12:21:15;;;;;;;3.28;1.20;;;23.10;41.20;;;;;;5027932;28;20025;-58
2022/09/30 12:24:07;;;;;;;2.28;1.13;;;23.20;41.20;;;;;;5034030;28;20036;-53
2022/09/30 12:26:34;;;;;;;2.45;1.30;;;23.20;41.10;;;;;;5031778;28;20033;-52
2022/09/30 12:32:09;;;;;;;3.85;1.30;;;23.40;41.10;;;;;;5032368;28;20426;-52
2022/09/30 12:34:53;;;;;;;4.55;1.23;;;23.40;41.10;;;;;;5033350;28;20025;-54
2022/09/30 12:37:25;;;;;;;2.40;1.27;;;23.50;41.10;;;;;;5037360;28;20036;-55
2022/09/30 12:40:00;;;;;;;3.17;1.20;;;23.50;41.00;;;;;;5037152;28;20039;-52
2022/09/30 12:42:42;;;;;;;3.17;1.27;;;23.60;41.00;;;;;;5035639;28;20094;-54
2022/09/30 12:45:17;;;;;;;6.38;1.52;;;23.60;40.70;;;;;;5033058;28;21772;-57
2022/09/30 12:47:53;;;;;;;1.77;0.85;;;23.70;40.70;;;;;;5036626;28;20035;-57
2022/09/30 12:50:25;;;;;;;1.25;0.90;;;23.70;40.40;;;;;;5034193;28;20030;-54
2022/09/30 12:52:51;;;;;;;1.73;0.90;;;23.70;40.30;;;;;;5033608;28;20029;-58
2022/09/30 12:55:31;;;;;;;3.03;0.90;;;23.70;40.10;;;;;;5037988;28;20042;-53
2022/09/30 12:58:01;;;;;;;1.85;0.80;;;23.80;40.00;;;;;;5035284;28;20033;-52
2022/09/30 13:00:30;;;;;;;1.52;0.85;;;23.80;39.90;;;;;;5033205;28;20044;-53
2022/09/30 13:03:17;;;;;;;2.42;0.90;;;23.80;39.80;;;;;;5039169;28;20040;-57
2022/09/30 13:05:52;;;;;;;1.10;0.80;;;23.80;39.70;;;;;;5033544;28;20361;-58
2022/09/30 13:08:17;;;;;;;3.10;0.88;;;23.80;39.60;;;;;;5036102;28;20068;-56
2022/09/30 13:10:45;;;;;;;1.33;0.70;;;23.80;39.60;;;;;;5038970;28;20697;-56
2022/09/30 13:13:26;;;;;;;1.13;0.50;;;23.80;39.60;;;;;;5033688;28;20041;-56
2022/09/30 13:16:02;;;;;;;2.17;0.75;;;23.80;39.50;;;;;;5031927;28;20483;-54
2022/09/30 13:18:28;;;;;;;0.90;0.63;;;23.80;39.50;;;;;;5034604;28;20107;-57
2022/09/30 13:21:09;;;;;;;4.78;0.77;;;23.80;40.10;;;;;;5036292;28;20057;-57
2022/09/30 13:23:55;;;;;;;1.23;0.60;;;23.80;40.10;;;;;;5031022;28;20069;-63
2022/09/30 13:26:31;;;;;;;1.00;0.50;;;23.80;39.60;;;;;;5035722;28;20041;-58
2022/09/30 13:29:13;;;;;;;3.63;0.60;;;23.80;39.60;;;;;;5034805;28;20087;-58